sensor_id;sensor_type;location;lat;lon;timestamp;temperature;humidity
23744;DHT22;12052;53.478;10.182;2022-12-07T00:01:06;2.40;99.90
23744;DHT22;12052;53.478;10.182;2022-12-07T00:03:32;2.50;99.90
23744;DHT22;12052;53.478;10.182;2022-12-07T00:05:59;2.50;99.90
23744;DHT22;12052;53.478;10.182;2022-12-07T00:08:24;2.60;99.90
23744;DHT22;12052;53.478;10.182;2022-12-07T00:10:50;2.50;99.90
23744;DHT22;12052;53.478;10.182;2022-12-07T00:13:16;2.60;99.90
23744;DHT22;12052;53.478;10.182;2022-12-07T00:15:41;2.60;99.90
23744;DHT22;12052;53.478;10.182;2022-12-07T00:18:07;2.60;99.90
23744;DHT22;12052;53.478;10.182;2022-12-07T00:20:32;2.70;99.90
23744;DHT22;12052;53.478;10.182;2022-12-07T00:22:59;2.70;99.90
23744;DHT22;12052;53.478;10.182;2022-12-07T00:25:24;2.80;99.90
23744;DHT22;12052;53.478;10.182;2022-12-07T00:27:52;2.80;99.90
23744;DHT22;12052;53.478;10.182;2022-12-07T00:30:18;2.70;99.90
23744;DHT22;12052;53.478;10.182;2022-12-07T00:32:44;2.70;99.90
23744;DHT22;12052;53.478;10.182;2022-12-07T00:35:09;2.80;99.90
23744;DHT22;12052;53.478;10.182;2022-12-07T00:37:35;2.80;99.90
23744;DHT22;12052;53.478;10.182;2022-12-07T00:40:00;2.70;99.90
23744;DHT22;12052;53.478;10.182;2022-12-07T00:42:26;2.80;99.90
23744;DHT22;12052;53.478;10.182;2022-12-07T00:44:51;2.70;99.90
23744;DHT22;12052;53.478;10.182;2022-12-07T00:47:17;2.80;99.90
23744;DHT22;12052;53.478;10.182;2022-12-07T00:49:42;2.80;99.90
23744;DHT22;12052;53.478;10.182;2022-12-07T00:52:08;2.90;99.90
23744;DHT22;12052;53.478;10.182;2022-12-07T00:54:34;2.70;99.90
23744;DHT22;12052;53.478;10.182;2022-12-07T00:56:59;2.80;99.90
23744;DHT22;12052;53.478;10.182;2022-12-07T00:59:25;2.70;99.90
23744;DHT22;12052;53.478;10.182;2022-12-07T01:01:50;2.70;99.90
23744;DHT22;12052;53.478;10.182;2022-12-07T01:04:16;2.60;99.90
23744;DHT22;12052;53.478;10.182;2022-12-07T01:06:41;2.70;99.90
23744;DHT22;12052;53.478;10.182;2022-12-07T01:09:07;2.70;99.90
23744;DHT22;12052;53.478;10.182;2022-12-07T01:11:33;2.70;99.90
23744;DHT22;12052;53.478;10.182;2022-12-07T01:13:59;2.70;99.90
23744;DHT22;12052;53.478;10.182;2022-12-07T01:16:28;2.80;99.90
23744;DHT22;12052;53.478;10.182;2022-12-07T01:18:55;2.70;99.90
23744;DHT22;12052;53.478;10.182;2022-12-07T01:21:24;2.80;99.90
23744;DHT22;12052;53.478;10.182;2022-12-07T01:23:50;2.80;99.90
23744;DHT22;12052;53.478;10.182;2022-12-07T01:26:18;2.80;99.90
23744;DHT22;12052;53.478;10.182;2022-12-07T01:28:44;2.80;99.90
23744;DHT22;12052;53.478;10.182;2022-12-07T01:31:13;2.80;99.90
23744;DHT22;12052;53.478;10.182;2022-12-07T01:33:41;2.90;99.90
23744;DHT22;12052;53.478;10.182;2022-12-07T01:36:12;2.90;99.90
23744;DHT22;12052;53.478;10.182;2022-12-07T01:38:39;2.90;99.90
23744;DHT22;12052;53.478;10.182;2022-12-07T01:41:04;2.90;99.90
23744;DHT22;12052;53.478;10.182;2022-12-07T01:43:32;3.00;99.90
23744;DHT22;12052;53.478;10.182;2022-12-07T01:45:59;2.90;99.90
23744;DHT22;12052;53.478;10.182;2022-12-07T01:50:56;2.90;99.90
23744;DHT22;12052;53.478;10.182;2022-12-07T01:53:27;3.00;99.90
23744;DHT22;12052;53.478;10.182;2022-12-07T01:55:55;3.00;99.90
23744;DHT22;12052;53.478;10.182;2022-12-07T01:58:22;2.90;99.90
23744;DHT22;12052;53.478;10.182;2022-12-07T02:00:48;3.00;99.90
23744;DHT22;12052;53.478;10.182;2022-12-07T02:03:26;3.00;99.90
23744;DHT22;12052;53.478;10.182;2022-12-07T02:05:54;3.10;99.90
23744;DHT22;12052;53.478;10.182;2022-12-07T02:08:20;3.10;99.90
23744;DHT22;12052;53.478;10.182;2022-12-07T02:10:46;3.00;99.90
23744;DHT22;12052;53.478;10.182;2022-12-07T02:13:25;3.00;99.90
23744;DHT22;12052;53.478;10.182;2022-12-07T02:24:14;3.10;99.90
23744;DHT22;12052;53.478;10.182;2022-12-07T02:29:38;3.00;99.90
23744;DHT22;12052;53.478;10.182;2022-12-07T02:32:57;3.10;99.90
23744;DHT22;12052;53.478;10.182;2022-12-07T02:42:53;2.90;99.90
23744;DHT22;12052;53.478;10.182;2022-12-07T02:45:22;2.90;99.90
23744;DHT22;12052;53.478;10.182;2022-12-07T02:47:51;2.90;99.90
23744;DHT22;12052;53.478;10.182;2022-12-07T02:50:21;2.90;99.90
23744;DHT22;12052;53.478;10.182;2022-12-07T02:52:47;2.80;99.90
23744;DHT22;12052;53.478;10.182;2022-12-07T02:55:15;2.80;99.90
23744;DHT22;12052;53.478;10.182;2022-12-07T02:57:49;2.80;99.90
23744;DHT22;12052;53.478;10.182;2022-12-07T03:00:19;2.80;99.90
23744;DHT22;12052;53.478;10.182;2022-12-07T03:03:00;2.80;99.90
23744;DHT22;12052;53.478;10.182;2022-12-07T03:05:39;2.80;99.90
23744;DHT22;12052;53.478;10.182;2022-12-07T03:11:00;2.70;99.90
23744;DHT22;12052;53.478;10.182;2022-12-07T03:16:05;2.80;99.90
23744;DHT22;12052;53.478;10.182;2022-12-07T03:18:40;2.70;99.90
23744;DHT22;12052;53.478;10.182;2022-12-07T03:21:11;2.70;99.90
23744;DHT22;12052;53.478;10.182;2022-12-07T03:23:40;2.70;99.90
23744;DHT22;12052;53.478;10.182;2022-12-07T03:26:09;2.70;99.90
23744;DHT22;12052;53.478;10.182;2022-12-07T03:28:39;2.70;99.90
23744;DHT22;12052;53.478;10.182;2022-12-07T03:31:08;2.70;99.90
23744;DHT22;12052;53.478;10.182;2022-12-07T03:33:42;2.70;99.90
23744;DHT22;12052;53.478;10.182;2022-12-07T03:36:26;2.60;99.90
23744;DHT22;12052;53.478;10.182;2022-12-07T03:38:59;2.60;99.90
23744;DHT22;12052;53.478;10.182;2022-12-07T03:41:30;2.60;99.90
23744;DHT22;12052;53.478;10.182;2022-12-07T03:43:57;2.50;99.90
23744;DHT22;12052;53.478;10.182;2022-12-07T03:49:27;2.50;99.90
23744;DHT22;12052;53.478;10.182;2022-12-07T03:52:15;2.50;99.90
23744;DHT22;12052;53.478;10.182;2022-12-07T03:57:28;2.40;99.90
23744;DHT22;12052;53.478;10.182;2022-12-07T03:59:56;2.40;99.90
23744;DHT22;12052;53.478;10.182;2022-12-07T04:02:25;2.50;99.90
23744;DHT22;12052;53.478;10.182;2022-12-07T04:04:52;2.40;99.90
23744;DHT22;12052;53.478;10.182;2022-12-07T04:07:18;2.40;99.90
23744;DHT22;12052;53.478;10.182;2022-12-07T04:09:44;2.50;99.90
23744;DHT22;12052;53.478;10.182;2022-12-07T04:12:09;2.40;99.90
23744;DHT22;12052;53.478;10.182;2022-12-07T04:14:35;2.40;99.90
23744;DHT22;12052;53.478;10.182;2022-12-07T04:17:01;2.40;99.90
23744;DHT22;12052;53.478;10.182;2022-12-07T04:19:29;2.40;99.90
23744;DHT22;12052;53.478;10.182;2022-12-07T04:21:55;2.40;99.90
23744;DHT22;12052;53.478;10.182;2022-12-07T04:24:22;2.40;99.90
23744;DHT22;12052;53.478;10.182;2022-12-07T04:26:48;2.40;99.90
23744;DHT22;12052;53.478;10.182;2022-12-07T04:29:15;2.40;99.90
23744;DHT22;12052;53.478;10.182;2022-12-07T04:31:41;2.40;99.90
23744;DHT22;12052;53.478;10.182;2022-12-07T04:34:07;2.40;99.90
23744;DHT22;12052;53.478;10.182;2022-12-07T04:36:33;2.40;99.90
23744;DHT22;12052;53.478;10.182;2022-12-07T04:38:59;2.30;99.90
23744;DHT22;12052;53.478;10.182;2022-12-07T04:41:25;2.30;99.90
23744;DHT22;12052;53.478;10.182;2022-12-07T04:43:58;2.30;99.90
23744;DHT22;12052;53.478;10.182;2022-12-07T04:46:25;2.30;99.90
23744;DHT22;12052;53.478;10.182;2022-12-07T04:48:52;2.30;99.90
23744;DHT22;12052;53.478;10.182;2022-12-07T04:51:23;2.20;99.90
23744;DHT22;12052;53.478;10.182;2022-12-07T04:53:50;2.20;99.90
23744;DHT22;12052;53.478;10.182;2022-12-07T04:56:16;2.20;99.90
23744;DHT22;12052;53.478;10.182;2022-12-07T04:58:43;2.20;99.90
23744;DHT22;12052;53.478;10.182;2022-12-07T05:01:10;2.10;99.90
23744;DHT22;12052;53.478;10.182;2022-12-07T05:03:36;2.10;99.90
23744;DHT22;12052;53.478;10.182;2022-12-07T05:06:02;2.10;99.90
23744;DHT22;12052;53.478;10.182;2022-12-07T05:08:28;2.00;99.90
23744;DHT22;12052;53.478;10.182;2022-12-07T05:10:53;2.00;99.90
23744;DHT22;12052;53.478;10.182;2022-12-07T05:13:19;2.00;99.90
23744;DHT22;12052;53.478;10.182;2022-12-07T05:15:46;2.00;99.90
23744;DHT22;12052;53.478;10.182;2022-12-07T05:18:12;1.90;99.90
23744;DHT22;12052;53.478;10.182;2022-12-07T05:20:39;1.90;99.90
23744;DHT22;12052;53.478;10.182;2022-12-07T05:23:04;1.90;99.90
23744;DHT22;12052;53.478;10.182;2022-12-07T05:25:30;1.80;99.90
23744;DHT22;12052;53.478;10.182;2022-12-07T05:27:56;1.80;99.90
23744;DHT22;12052;53.478;10.182;2022-12-07T05:30:22;1.80;99.90
23744;DHT22;12052;53.478;10.182;2022-12-07T05:32:48;1.80;99.90
23744;DHT22;12052;53.478;10.182;2022-12-07T05:35:14;1.80;99.90
23744;DHT22;12052;53.478;10.182;2022-12-07T05:37:39;1.70;99.90
23744;DHT22;12052;53.478;10.182;2022-12-07T05:40:06;1.70;99.90
23744;DHT22;12052;53.478;10.182;2022-12-07T05:42:32;1.80;99.90
23744;DHT22;12052;53.478;10.182;2022-12-07T05:44:57;1.70;99.90
23744;DHT22;12052;53.478;10.182;2022-12-07T05:47:23;1.60;99.90
23744;DHT22;12052;53.478;10.182;2022-12-07T05:49:48;1.60;99.90
23744;DHT22;12052;53.478;10.182;2022-12-07T05:52:14;1.50;99.90
23744;DHT22;12052;53.478;10.182;2022-12-07T05:54:40;1.50;99.90
23744;DHT22;12052;53.478;10.182;2022-12-07T05:57:05;1.40;99.90
23744;DHT22;12052;53.478;10.182;2022-12-07T05:59:31;1.40;99.90
23744;DHT22;12052;53.478;10.182;2022-12-07T06:04:31;1.40;99.90
23744;DHT22;12052;53.478;10.182;2022-12-07T06:06:57;1.40;99.90
23744;DHT22;12052;53.478;10.182;2022-12-07T06:09:23;1.40;99.90
23744;DHT22;12052;53.478;10.182;2022-12-07T06:11:49;1.40;99.90
23744;DHT22;12052;53.478;10.182;2022-12-07T06:14:33;1.30;99.90
23744;DHT22;12052;53.478;10.182;2022-12-07T06:16:59;1.30;99.90
23744;DHT22;12052;53.478;10.182;2022-12-07T06:19:25;1.30;99.90
23744;DHT22;12052;53.478;10.182;2022-12-07T06:21:51;1.20;99.90
23744;DHT22;12052;53.478;10.182;2022-12-07T06:24:17;1.20;99.90
23744;DHT22;12052;53.478;10.182;2022-12-07T06:26:44;1.20;99.90
23744;DHT22;12052;53.478;10.182;2022-12-07T06:29:10;1.20;99.90
23744;DHT22;12052;53.478;10.182;2022-12-07T06:31:37;1.20;99.90
23744;DHT22;12052;53.478;10.182;2022-12-07T06:34:06;1.20;99.90
23744;DHT22;12052;53.478;10.182;2022-12-07T06:36:32;1.20;99.90
23744;DHT22;12052;53.478;10.182;2022-12-07T06:38:58;1.20;99.90
23744;DHT22;12052;53.478;10.182;2022-12-07T06:41:24;1.10;99.90
23744;DHT22;12052;53.478;10.182;2022-12-07T06:43:50;1.20;99.90
23744;DHT22;12052;53.478;10.182;2022-12-07T06:46:16;1.10;99.90
23744;DHT22;12052;53.478;10.182;2022-12-07T06:48:42;1.20;99.90
23744;DHT22;12052;53.478;10.182;2022-12-07T06:51:08;1.20;99.90
23744;DHT22;12052;53.478;10.182;2022-12-07T06:53:35;1.20;99.90
23744;DHT22;12052;53.478;10.182;2022-12-07T06:56:00;1.10;99.90
23744;DHT22;12052;53.478;10.182;2022-12-07T06:58:26;1.20;99.90
23744;DHT22;12052;53.478;10.182;2022-12-07T07:00:52;1.10;99.90
23744;DHT22;12052;53.478;10.182;2022-12-07T07:03:18;1.10;99.90
23744;DHT22;12052;53.478;10.182;2022-12-07T07:05:44;1.10;99.90
23744;DHT22;12052;53.478;10.182;2022-12-07T07:08:10;1.10;99.90
23744;DHT22;12052;53.478;10.182;2022-12-07T07:10:36;1.00;99.90
23744;DHT22;12052;53.478;10.182;2022-12-07T07:13:02;1.10;99.90
23744;DHT22;12052;53.478;10.182;2022-12-07T07:15:28;1.20;99.90
23744;DHT22;12052;53.478;10.182;2022-12-07T07:17:53;1.20;99.90
23744;DHT22;12052;53.478;10.182;2022-12-07T07:20:19;1.10;99.90
23744;DHT22;12052;53.478;10.182;2022-12-07T07:22:45;1.20;99.90
23744;DHT22;12052;53.478;10.182;2022-12-07T07:25:10;1.20;99.90
23744;DHT22;12052;53.478;10.182;2022-12-07T07:27:36;1.20;99.90
23744;DHT22;12052;53.478;10.182;2022-12-07T07:30:02;1.30;99.90
23744;DHT22;12052;53.478;10.182;2022-12-07T07:32:28;1.40;99.90
23744;DHT22;12052;53.478;10.182;2022-12-07T07:34:54;1.40;99.90
23744;DHT22;12052;53.478;10.182;2022-12-07T07:37:19;1.40;99.90
23744;DHT22;12052;53.478;10.182;2022-12-07T07:39:45;1.40;99.90
23744;DHT22;12052;53.478;10.182;2022-12-07T07:42:10;1.50;99.90
23744;DHT22;12052;53.478;10.182;2022-12-07T07:44:36;1.50;99.90
23744;DHT22;12052;53.478;10.182;2022-12-07T07:47:02;1.50;99.90
23744;DHT22;12052;53.478;10.182;2022-12-07T07:49:27;1.60;99.90
23744;DHT22;12052;53.478;10.182;2022-12-07T07:51:53;1.60;99.90
23744;DHT22;12052;53.478;10.182;2022-12-07T07:54:19;1.60;99.90
23744;DHT22;12052;53.478;10.182;2022-12-07T07:56:44;1.70;99.90
23744;DHT22;12052;53.478;10.182;2022-12-07T07:59:10;1.70;99.90
23744;DHT22;12052;53.478;10.182;2022-12-07T08:01:35;1.70;99.90
23744;DHT22;12052;53.478;10.182;2022-12-07T08:04:01;1.70;99.90
23744;DHT22;12052;53.478;10.182;2022-12-07T08:06:27;1.70;99.90
23744;DHT22;12052;53.478;10.182;2022-12-07T08:08:52;1.80;99.90
23744;DHT22;12052;53.478;10.182;2022-12-07T08:11:18;1.80;99.90
23744;DHT22;12052;53.478;10.182;2022-12-07T08:13:47;1.80;99.90
23744;DHT22;12052;53.478;10.182;2022-12-07T08:16:12;1.80;99.90
23744;DHT22;12052;53.478;10.182;2022-12-07T08:18:40;1.80;99.90
23744;DHT22;12052;53.478;10.182;2022-12-07T08:21:07;1.80;99.90
23744;DHT22;12052;53.478;10.182;2022-12-07T08:23:33;1.90;99.90
23744;DHT22;12052;53.478;10.182;2022-12-07T08:26:10;1.90;99.90
23744;DHT22;12052;53.478;10.182;2022-12-07T08:28:36;1.90;99.90
23744;DHT22;12052;53.478;10.182;2022-12-07T08:31:11;1.90;99.90
23744;DHT22;12052;53.478;10.182;2022-12-07T08:33:37;2.00;99.90
23744;DHT22;12052;53.478;10.182;2022-12-07T08:36:05;2.00;99.90
23744;DHT22;12052;53.478;10.182;2022-12-07T08:38:31;2.00;99.90
23744;DHT22;12052;53.478;10.182;2022-12-07T08:40:58;2.00;99.90
23744;DHT22;12052;53.478;10.182;2022-12-07T08:43:23;2.10;99.90
23744;DHT22;12052;53.478;10.182;2022-12-07T08:45:59;2.10;99.90
23744;DHT22;12052;53.478;10.182;2022-12-07T08:48:26;2.10;99.90
23744;DHT22;12052;53.478;10.182;2022-12-07T08:50:52;2.10;99.90
23744;DHT22;12052;53.478;10.182;2022-12-07T08:53:17;2.20;99.90
23744;DHT22;12052;53.478;10.182;2022-12-07T08:55:44;2.20;99.90
23744;DHT22;12052;53.478;10.182;2022-12-07T08:58:11;2.20;99.90
23744;DHT22;12052;53.478;10.182;2022-12-07T09:00:37;2.20;99.90
23744;DHT22;12052;53.478;10.182;2022-12-07T09:03:02;2.20;99.90
23744;DHT22;12052;53.478;10.182;2022-12-07T09:05:28;2.30;99.90
23744;DHT22;12052;53.478;10.182;2022-12-07T09:07:57;2.30;99.90
23744;DHT22;12052;53.478;10.182;2022-12-07T09:10:25;2.40;99.90
23744;DHT22;12052;53.478;10.182;2022-12-07T09:12:51;2.40;99.90
23744;DHT22;12052;53.478;10.182;2022-12-07T09:15:17;2.40;99.90
23744;DHT22;12052;53.478;10.182;2022-12-07T09:17:42;2.50;99.90
23744;DHT22;12052;53.478;10.182;2022-12-07T09:20:08;2.60;99.90
23744;DHT22;12052;53.478;10.182;2022-12-07T09:22:34;2.70;99.90
23744;DHT22;12052;53.478;10.182;2022-12-07T09:25:00;2.70;99.90
23744;DHT22;12052;53.478;10.182;2022-12-07T09:27:26;2.80;99.90
23744;DHT22;12052;53.478;10.182;2022-12-07T09:29:52;2.80;99.90
23744;DHT22;12052;53.478;10.182;2022-12-07T09:32:18;2.80;99.90
23744;DHT22;12052;53.478;10.182;2022-12-07T09:34:43;2.90;99.90
23744;DHT22;12052;53.478;10.182;2022-12-07T09:37:10;2.90;99.90
23744;DHT22;12052;53.478;10.182;2022-12-07T09:39:38;3.00;99.90
23744;DHT22;12052;53.478;10.182;2022-12-07T09:42:04;3.10;99.90
23744;DHT22;12052;53.478;10.182;2022-12-07T09:44:31;3.10;99.90
23744;DHT22;12052;53.478;10.182;2022-12-07T09:46:57;3.20;99.90
23744;DHT22;12052;53.478;10.182;2022-12-07T09:49:25;3.20;99.90
23744;DHT22;12052;53.478;10.182;2022-12-07T09:54:27;3.30;99.90
23744;DHT22;12052;53.478;10.182;2022-12-07T09:56:53;3.30;99.90
23744;DHT22;12052;53.478;10.182;2022-12-07T09:59:19;3.40;99.90
23744;DHT22;12052;53.478;10.182;2022-12-07T10:01:49;3.30;99.90
23744;DHT22;12052;53.478;10.182;2022-12-07T10:04:20;3.40;99.90
23744;DHT22;12052;53.478;10.182;2022-12-07T10:06:46;3.40;99.90
23744;DHT22;12052;53.478;10.182;2022-12-07T10:09:15;3.40;99.90
23744;DHT22;12052;53.478;10.182;2022-12-07T10:12:00;3.40;99.90
23744;DHT22;12052;53.478;10.182;2022-12-07T10:14:29;3.40;99.90
23744;DHT22;12052;53.478;10.182;2022-12-07T10:16:55;3.40;99.90
23744;DHT22;12052;53.478;10.182;2022-12-07T10:19:31;3.40;99.90
23744;DHT22;12052;53.478;10.182;2022-12-07T10:22:07;3.40;99.90
23744;DHT22;12052;53.478;10.182;2022-12-07T10:24:34;3.30;99.90
23744;DHT22;12052;53.478;10.182;2022-12-07T10:27:00;3.40;99.90
23744;DHT22;12052;53.478;10.182;2022-12-07T10:29:31;3.40;99.90
23744;DHT22;12052;53.478;10.182;2022-12-07T10:39:50;3.50;99.90
23744;DHT22;12052;53.478;10.182;2022-12-07T10:42:20;3.40;99.90
23744;DHT22;12052;53.478;10.182;2022-12-07T10:44:46;3.40;99.90
23744;DHT22;12052;53.478;10.182;2022-12-07T10:50:30;3.40;99.90
23744;DHT22;12052;53.478;10.182;2022-12-07T10:53:15;3.40;99.90
23744;DHT22;12052;53.478;10.182;2022-12-07T10:56:00;3.40;99.90
23744;DHT22;12052;53.478;10.182;2022-12-07T11:01:26;3.40;99.90
23744;DHT22;12052;53.478;10.182;2022-12-07T11:06:37;3.40;99.90
23744;DHT22;12052;53.478;10.182;2022-12-07T11:14:54;3.50;99.90
23744;DHT22;12052;53.478;10.182;2022-12-07T11:22:53;3.50;99.90
23744;DHT22;12052;53.478;10.182;2022-12-07T11:30:54;3.50;99.90
23744;DHT22;12052;53.478;10.182;2022-12-07T11:33:33;3.50;99.90
23744;DHT22;12052;53.478;10.182;2022-12-07T11:39:03;3.50;99.90
23744;DHT22;12052;53.478;10.182;2022-12-07T11:41:35;3.50;99.90
23744;DHT22;12052;53.478;10.182;2022-12-07T11:47:12;3.50;99.90
23744;DHT22;12052;53.478;10.182;2022-12-07T11:52:51;3.50;99.90
23744;DHT22;12052;53.478;10.182;2022-12-07T11:55:45;3.50;99.90
23744;DHT22;12052;53.478;10.182;2022-12-07T12:03:52;3.40;99.90
23744;DHT22;12052;53.478;10.182;2022-12-07T12:06:18;3.50;99.90
23744;DHT22;12052;53.478;10.182;2022-12-07T12:09:06;3.40;99.90
23744;DHT22;12052;53.478;10.182;2022-12-07T12:14:34;3.50;99.90
23744;DHT22;12052;53.478;10.182;2022-12-07T12:22:23;3.50;99.90
23744;DHT22;12052;53.478;10.182;2022-12-07T12:24:53;3.50;99.90
23744;DHT22;12052;53.478;10.182;2022-12-07T12:27:27;3.50;99.90
23744;DHT22;12052;53.478;10.182;2022-12-07T12:29:59;3.50;99.90
23744;DHT22;12052;53.478;10.182;2022-12-07T12:32:42;3.50;99.90
23744;DHT22;12052;53.478;10.182;2022-12-07T12:35:33;3.50;99.90
23744;DHT22;12052;53.478;10.182;2022-12-07T12:38:31;3.50;99.90
23744;DHT22;12052;53.478;10.182;2022-12-07T12:41:00;3.60;99.90
23744;DHT22;12052;53.478;10.182;2022-12-07T12:43:46;3.60;99.90
23744;DHT22;12052;53.478;10.182;2022-12-07T12:46:53;3.60;99.90
23744;DHT22;12052;53.478;10.182;2022-12-07T12:57:05;3.80;99.90
23744;DHT22;12052;53.478;10.182;2022-12-07T12:59:36;3.80;99.90
23744;DHT22;12052;53.478;10.182;2022-12-07T13:23:20;3.80;99.90
23744;DHT22;12052;53.478;10.182;2022-12-07T13:25:54;3.80;99.90
23744;DHT22;12052;53.478;10.182;2022-12-07T13:28:21;3.80;99.90
23744;DHT22;12052;53.478;10.182;2022-12-07T13:33:53;3.80;99.90
23744;DHT22;12052;53.478;10.182;2022-12-07T13:36:21;3.70;99.90
23744;DHT22;12052;53.478;10.182;2022-12-07T13:38:55;3.70;99.90
23744;DHT22;12052;53.478;10.182;2022-12-07T13:41:23;3.70;99.90
23744;DHT22;12052;53.478;10.182;2022-12-07T13:43:53;3.80;99.90
23744;DHT22;12052;53.478;10.182;2022-12-07T13:46:59;3.80;99.90
23744;DHT22;12052;53.478;10.182;2022-12-07T13:49:32;3.80;99.90
23744;DHT22;12052;53.478;10.182;2022-12-07T13:52:27;3.80;99.90
23744;DHT22;12052;53.478;10.182;2022-12-07T13:57:33;3.70;99.90
23744;DHT22;12052;53.478;10.182;2022-12-07T14:00:01;3.70;99.90
23744;DHT22;12052;53.478;10.182;2022-12-07T14:02:32;3.70;99.90
23744;DHT22;12052;53.478;10.182;2022-12-07T14:10:27;3.60;99.90
23744;DHT22;12052;53.478;10.182;2022-12-07T14:12:53;3.60;99.90
23744;DHT22;12052;53.478;10.182;2022-12-07T14:15:27;3.60;99.90
23744;DHT22;12052;53.478;10.182;2022-12-07T14:17:54;3.50;99.90
23744;DHT22;12052;53.478;10.182;2022-12-07T14:20:36;3.50;99.90
23744;DHT22;12052;53.478;10.182;2022-12-07T14:23:04;3.50;99.90
23744;DHT22;12052;53.478;10.182;2022-12-07T14:25:51;3.50;99.90
23744;DHT22;12052;53.478;10.182;2022-12-07T14:28:29;3.40;99.90
23744;DHT22;12052;53.478;10.182;2022-12-07T14:30:55;3.40;99.90
23744;DHT22;12052;53.478;10.182;2022-12-07T14:33:21;3.40;99.90
23744;DHT22;12052;53.478;10.182;2022-12-07T14:35:48;3.30;99.90
23744;DHT22;12052;53.478;10.182;2022-12-07T14:38:14;3.30;99.90
23744;DHT22;12052;53.478;10.182;2022-12-07T14:40:40;3.30;99.90
23744;DHT22;12052;53.478;10.182;2022-12-07T14:43:11;3.20;99.90
23744;DHT22;12052;53.478;10.182;2022-12-07T14:45:38;3.20;99.90
23744;DHT22;12052;53.478;10.182;2022-12-07T14:48:05;3.10;99.90
23744;DHT22;12052;53.478;10.182;2022-12-07T14:50:35;3.10;99.90
23744;DHT22;12052;53.478;10.182;2022-12-07T14:53:10;3.00;99.90
23744;DHT22;12052;53.478;10.182;2022-12-07T14:55:36;3.00;99.90
23744;DHT22;12052;53.478;10.182;2022-12-07T14:58:02;2.90;99.90
23744;DHT22;12052;53.478;10.182;2022-12-07T15:00:28;2.90;99.90
23744;DHT22;12052;53.478;10.182;2022-12-07T15:02:54;2.90;99.90
23744;DHT22;12052;53.478;10.182;2022-12-07T15:05:20;2.80;99.90
23744;DHT22;12052;53.478;10.182;2022-12-07T15:07:48;2.80;99.90
23744;DHT22;12052;53.478;10.182;2022-12-07T15:10:26;2.70;99.90
23744;DHT22;12052;53.478;10.182;2022-12-07T15:12:55;2.60;99.90
23744;DHT22;12052;53.478;10.182;2022-12-07T15:15:41;2.60;99.90
23744;DHT22;12052;53.478;10.182;2022-12-07T15:18:06;2.60;99.90
23744;DHT22;12052;53.478;10.182;2022-12-07T15:20:32;2.50;99.90
23744;DHT22;12052;53.478;10.182;2022-12-07T15:22:58;2.40;99.90
23744;DHT22;12052;53.478;10.182;2022-12-07T15:25:23;2.50;99.90
23744;DHT22;12052;53.478;10.182;2022-12-07T15:27:49;2.40;99.90
23744;DHT22;12052;53.478;10.182;2022-12-07T15:30:15;2.40;99.90
23744;DHT22;12052;53.478;10.182;2022-12-07T15:32:41;2.40;99.90
23744;DHT22;12052;53.478;10.182;2022-12-07T15:35:06;2.40;99.90
23744;DHT22;12052;53.478;10.182;2022-12-07T15:37:32;2.40;99.90
23744;DHT22;12052;53.478;10.182;2022-12-07T15:39:58;2.30;99.90
23744;DHT22;12052;53.478;10.182;2022-12-07T15:42:24;2.30;99.90
23744;DHT22;12052;53.478;10.182;2022-12-07T15:44:49;2.20;99.90
23744;DHT22;12052;53.478;10.182;2022-12-07T15:47:31;2.20;99.90
23744;DHT22;12052;53.478;10.182;2022-12-07T15:49:57;2.10;99.90
23744;DHT22;12052;53.478;10.182;2022-12-07T15:52:23;2.00;99.90
23744;DHT22;12052;53.478;10.182;2022-12-07T15:54:48;2.00;99.90
23744;DHT22;12052;53.478;10.182;2022-12-07T15:57:14;1.90;99.90
23744;DHT22;12052;53.478;10.182;2022-12-07T15:59:39;1.80;99.90
23744;DHT22;12052;53.478;10.182;2022-12-07T16:02:05;1.80;99.90
23744;DHT22;12052;53.478;10.182;2022-12-07T16:04:31;1.70;99.90
23744;DHT22;12052;53.478;10.182;2022-12-07T16:06:57;1.60;99.90
23744;DHT22;12052;53.478;10.182;2022-12-07T16:09:22;1.50;99.90
23744;DHT22;12052;53.478;10.182;2022-12-07T16:11:48;1.50;99.90
23744;DHT22;12052;53.478;10.182;2022-12-07T16:14:15;1.40;99.90
23744;DHT22;12052;53.478;10.182;2022-12-07T16:16:41;1.40;99.90
23744;DHT22;12052;53.478;10.182;2022-12-07T16:19:07;1.30;99.90
23744;DHT22;12052;53.478;10.182;2022-12-07T16:21:34;1.20;99.90
23744;DHT22;12052;53.478;10.182;2022-12-07T16:24:00;1.20;99.90
23744;DHT22;12052;53.478;10.182;2022-12-07T16:26:26;1.20;99.90
23744;DHT22;12052;53.478;10.182;2022-12-07T16:28:52;1.20;99.90
23744;DHT22;12052;53.478;10.182;2022-12-07T16:31:21;1.20;99.90
23744;DHT22;12052;53.478;10.182;2022-12-07T16:33:48;1.10;99.90
23744;DHT22;12052;53.478;10.182;2022-12-07T16:36:14;1.10;99.90
23744;DHT22;12052;53.478;10.182;2022-12-07T16:38:42;1.00;99.90
23744;DHT22;12052;53.478;10.182;2022-12-07T16:41:08;1.00;99.90
23744;DHT22;12052;53.478;10.182;2022-12-07T16:43:34;0.90;99.90
23744;DHT22;12052;53.478;10.182;2022-12-07T16:46:00;0.90;99.90
23744;DHT22;12052;53.478;10.182;2022-12-07T16:48:26;0.90;99.90
23744;DHT22;12052;53.478;10.182;2022-12-07T16:50:52;0.90;99.90
23744;DHT22;12052;53.478;10.182;2022-12-07T16:53:20;0.90;99.90
23744;DHT22;12052;53.478;10.182;2022-12-07T16:55:46;0.90;99.90
23744;DHT22;12052;53.478;10.182;2022-12-07T16:58:12;0.90;99.90
23744;DHT22;12052;53.478;10.182;2022-12-07T17:00:39;0.80;99.90
23744;DHT22;12052;53.478;10.182;2022-12-07T17:03:06;0.80;99.90
23744;DHT22;12052;53.478;10.182;2022-12-07T17:05:32;0.70;99.90
23744;DHT22;12052;53.478;10.182;2022-12-07T17:07:58;0.70;99.90
23744;DHT22;12052;53.478;10.182;2022-12-07T17:10:24;0.60;99.90
23744;DHT22;12052;53.478;10.182;2022-12-07T17:12:50;0.60;99.90
23744;DHT22;12052;53.478;10.182;2022-12-07T17:15:17;0.60;99.90
23744;DHT22;12052;53.478;10.182;2022-12-07T17:17:50;0.60;99.90
23744;DHT22;12052;53.478;10.182;2022-12-07T17:20:16;0.70;99.90
23744;DHT22;12052;53.478;10.182;2022-12-07T17:22:42;0.70;99.90
23744;DHT22;12052;53.478;10.182;2022-12-07T17:25:08;0.70;99.90
23744;DHT22;12052;53.478;10.182;2022-12-07T17:27:34;0.60;99.90
23744;DHT22;12052;53.478;10.182;2022-12-07T17:30:00;0.60;99.90
23744;DHT22;12052;53.478;10.182;2022-12-07T17:32:26;0.60;99.90
23744;DHT22;12052;53.478;10.182;2022-12-07T17:34:51;0.60;99.90
23744;DHT22;12052;53.478;10.182;2022-12-07T17:37:17;0.60;99.90
23744;DHT22;12052;53.478;10.182;2022-12-07T17:39:43;0.60;99.90
23744;DHT22;12052;53.478;10.182;2022-12-07T17:42:09;0.60;99.90
23744;DHT22;12052;53.478;10.182;2022-12-07T17:44:53;0.50;99.90
23744;DHT22;12052;53.478;10.182;2022-12-07T17:47:18;0.50;99.90
23744;DHT22;12052;53.478;10.182;2022-12-07T17:49:45;0.50;99.90
23744;DHT22;12052;53.478;10.182;2022-12-07T17:52:12;0.50;99.90